Capitol Logistics 3268


KMIA
Miami International Airport
Miami, Florida, US
KDAB
Daytona Beach International Airport
Daytona Beach, Florida, US

Activity Log

Date Flight Route Aircraft Duration
08/29/2020 CPX3268 PIONN V437 MLB V3 OAKIE SF34 1h 31m
01/03/2020 CPX3268 KMIA HEDLY2 HEDLY V437 MLB V3 SMYRA KDAB SF34 1h 00m
11/04/2019 CPX668 PIONN V437 MLB V3 OAKIE SF34 1h 06m

Route Details

Aircraft Information
Primary: Saab 340AF
Backup: Not Available
Route Data
Distance: 207nm
Sched. Duration: 1h 35m
Avg. Duration: 1h 12m (-23m)
Times Flown: 3
Recm'd Route: PIONN V437 MLB V3 OAKIE
Planned Altitude: 16,000ft
Origin Wx: KMIA 220353Z 28003KT 10SM SCT250 18/14 A3008 RMK AO2 SLP184 T01830144 $
Dest. Wx: KDAB 220353Z 24009KT 10SM SCT050 BKN075 16/11 A3002 RMK AO2 SLP165 T01610106
Notes:

Financial History
Total Freight: 12,070lbs
Average Load: 4,023lbs/flt
Fuel Used: 2,913lbs
Avg. Fuel Used: 971lbs/flt
Fuel Expense: $3,583
Avg. Fuel Expense: $1,194
Avg. Fuel Cost: $1.23/lbs
Total Gross Income: $14,528
Pilot Pay: $687
Total Expenses: $1,725
Total Revenue: $8,406
Average Revenue: $4,842.73